Time;durP1;ratioP1;P1;durP2;ratioP2;P2;SDS_P1;SDS_P2;PMS_P1;PMS_P2;Temp;Humidity;BMP_temperature;BMP_pressure;BME280_temperature;BME280_humidity;BME280_pressure;Samples;Min_cycle;Max_cycle;Signal;HPM_P1;HPM_P2
2024/01/01 00:00:52;;;;;;;15.27;13.57;;;9.70;97.30;;;;;;911973;152;27424;-85
2024/01/01 00:03:18;;;;;;;28.33;19.83;;;9.70;97.30;;;;;;912296;153;27369;-86
2024/01/01 00:05:45;;;;;;;20.30;14.90;;;9.70;97.30;;;;;;916682;152;27478;-84
2024/01/01 00:08:12;;;;;;;21.07;14.53;;;9.70;97.40;;;;;;911896;152;27452;-84
2024/01/01 00:10:38;;;;;;;20.63;13.50;;;9.70;97.50;;;;;;933020;150;27790;-85
2024/01/01 00:13:05;;;;;;;18.47;13.10;;;9.70;97.70;;;;;;933038;150;27415;-84
2024/01/01 00:15:31;;;;;;;15.53;12.57;;;9.70;97.90;;;;;;912481;152;27497;-83
2024/01/01 00:17:58;;;;;;;12.70;9.50;;;9.70;98.00;;;;;;912328;153;27491;-83
2024/01/01 00:20:25;;;;;;;10.97;9.67;;;9.80;98.20;;;;;;932910;149;27440;-83
2024/01/01 00:22:51;;;;;;;8.90;7.70;;;9.80;98.10;;;;;;912246;153;27483;-84
2024/01/01 00:25:18;;;;;;;10.57;8.47;;;9.90;97.90;;;;;;932607;149;27344;-84
2024/01/01 00:27:44;;;;;;;14.83;10.37;;;9.90;97.80;;;;;;911770;152;27465;-83
2024/01/01 00:30:11;;;;;;;12.23;9.77;;;10.00;97.80;;;;;;939114;149;27355;-83
2024/01/01 00:32:38;;;;;;;13.57;7.80;;;10.00;97.90;;;;;;911936;153;27277;-83
2024/01/01 00:35:04;;;;;;;10.40;6.90;;;10.00;97.70;;;;;;933548;149;27341;-85
2024/01/01 00:37:31;;;;;;;7.53;6.43;;;10.10;97.70;;;;;;916633;152;27509;-85
2024/01/01 00:39:57;;;;;;;9.30;7.00;;;10.10;97.50;;;;;;911404;152;28557;-85
2024/01/01 00:42:25;;;;;;;9.17;5.63;;;10.10;97.50;;;;;;932611;150;27343;-85
2024/01/01 00:44:50;;;;;;;6.40;5.40;;;10.20;97.40;;;;;;916962;152;27430;-85
2024/01/01 00:47:17;;;;;;;10.07;6.77;;;10.20;97.20;;;;;;932104;149;27346;-85
2024/01/01 00:49:44;;;;;;;8.60;7.33;;;10.20;97.00;;;;;;915287;152;27392;-85
2024/01/01 00:52:11;;;;;;;7.97;5.97;;;10.30;96.80;;;;;;933962;149;27348;-85
2024/01/01 00:54:37;;;;;;;8.27;6.13;;;10.30;96.50;;;;;;911066;153;27425;-85
2024/01/01 00:57:03;;;;;;;8.67;6.63;;;10.30;96.30;;;;;;933925;149;27294;-85
2024/01/01 00:59:30;;;;;;;11.00;7.40;;;10.30;96.20;;;;;;920338;151;27464;-86
2024/01/01 01:01:57;;;;;;;8.60;7.70;;;10.30;96.00;;;;;;931919;150;28466;-85
2024/01/01 01:04:23;;;;;;;9.23;7.67;;;10.30;95.80;;;;;;932051;150;27311;-85
2024/01/01 01:06:50;;;;;;;10.97;8.17;;;10.20;95.60;;;;;;933649;150;27510;-85
2024/01/01 01:09:16;;;;;;;18.20;15.37;;;10.30;95.70;;;;;;933026;150;27389;-85
2024/01/01 01:11:43;;;;;;;17.33;13.70;;;10.20;95.70;;;;;;933765;150;27514;-85
2024/01/01 01:14:10;;;;;;;12.37;11.07;;;10.20;95.50;;;;;;933230;150;27437;-85
2024/01/01 01:16:36;;;;;;;13.53;10.27;;;10.20;96.10;;;;;;933173;150;27381;-85
2024/01/01 01:19:03;;;;;;;13.63;11.67;;;10.20;96.40;;;;;;932884;150;27363;-85
2024/01/01 01:21:29;;;;;;;14.07;10.07;;;10.20;96.60;;;;;;932777;150;27381;-85
2024/01/01 01:23:58;;;;;;;16.47;10.93;;;10.20;96.70;;;;;;932869;150;27283;-85
2024/01/01 01:26:22;;;;;;;14.20;10.67;;;10.20;96.60;;;;;;933428;150;27435;-84
2024/01/01 01:28:49;;;;;;;13.60;9.97;;;10.20;96.50;;;;;;933690;150;27346;-84
2024/01/01 01:31:16;;;;;;;15.43;10.90;;;10.20;96.30;;;;;;932841;150;27456;-85
2024/01/01 01:33:42;;;;;;;14.53;11.03;;;10.20;96.20;;;;;;932771;150;27370;-84
2024/01/01 01:36:09;;;;;;;13.00;10.37;;;10.20;96.10;;;;;;933264;150;27357;-84
2024/01/01 01:38:35;;;;;;;14.03;11.77;;;10.20;96.00;;;;;;933209;150;27415;-85
2024/01/01 01:41:02;;;;;;;11.23;9.77;;;10.20;95.80;;;;;;933609;150;27378;-84
2024/01/01 01:43:29;;;;;;;11.73;9.23;;;10.20;95.80;;;;;;932704;150;27369;-84
2024/01/01 01:45:55;;;;;;;12.50;8.93;;;10.20;96.00;;;;;;933595;150;27407;-86
2024/01/01 01:48:22;;;;;;;14.03;10.10;;;10.20;96.40;;;;;;928697;150;27359;-83
2024/01/01 01:50:48;;;;;;;10.73;8.67;;;10.10;96.70;;;;;;924921;151;27834;-84
2024/01/01 01:53:15;;;;;;;10.40;8.17;;;10.10;97.00;;;;;;919782;151;27386;-86
2024/01/01 01:55:44;;;;;;;10.07;7.63;;;10.20;97.20;;;;;;919531;152;27407;-85
2024/01/01 01:58:11;;;;;;;11.50;8.03;;;10.20;97.40;;;;;;918587;152;27332;-83
2024/01/01 02:00:37;;;;;;;11.10;7.17;;;10.20;97.70;;;;;;918445;152;27340;-84
2024/01/01 02:03:04;;;;;;;11.03;7.63;;;10.30;98.10;;;;;;917174;152;28334;-87
2024/01/01 02:05:30;;;;;;;15.37;11.10;;;10.30;98.20;;;;;;917365;152;27361;-83
2024/01/01 02:07:57;;;;;;;22.13;16.20;;;10.40;98.30;;;;;;918255;150;27430;-91
2024/01/01 02:10:24;;;;;;;12.27;9.50;;;10.40;98.30;;;;;;916046;152;27317;-86
2024/01/01 02:12:50;;;;;;;8.57;7.47;;;10.40;98.30;;;;;;918694;153;27404;-85
2024/01/01 02:15:17;;;;;;;10.87;8.43;;;10.40;98.30;;;;;;925202;151;27332;-85
2024/01/01 02:17:43;;;;;;;10.67;8.60;;;10.40;98.30;;;;;;924208;152;27311;-83
2024/01/01 02:20:10;;;;;;;8.90;6.60;;;10.40;98.20;;;;;;917752;155;27342;-82
2024/01/01 02:22:39;;;;;;;14.97;11.40;;;10.40;98.00;;;;;;928377;149;27338;-84
2024/01/01 02:25:03;;;;;;;9.67;7.40;;;10.40;97.70;;;;;;923122;150;27350;-82
2024/01/01 02:27:30;;;;;;;9.50;6.97;;;10.40;97.60;;;;;;919400;152;27348;-82
2024/01/01 02:29:56;;;;;;;9.77;6.17;;;10.40;97.50;;;;;;919689;152;27439;-82
2024/01/01 02:32:23;;;;;;;8.40;5.73;;;10.30;97.50;;;;;;918994;152;27350;-83
2024/01/01 02:34:49;;;;;;;7.80;4.97;;;10.30;97.60;;;;;;944406;149;27835;-82
2024/01/01 02:37:16;;;;;;;8.03;5.53;;;10.30;97.80;;;;;;904212;153;27380;-82
2024/01/01 02:39:43;;;;;;;8.57;5.87;;;10.20;97.90;;;;;;931810;149;27358;-82
2024/01/01 02:42:09;;;;;;;8.77;4.83;;;10.20;98.00;;;;;;943073;149;27288;-82
2024/01/01 02:44:37;;;;;;;9.57;5.30;;;10.20;98.20;;;;;;942717;149;27292;-83
2024/01/01 02:47:04;;;;;;;5.43;4.27;;;10.20;98.30;;;;;;941038;149;27424;-86
2024/01/01 02:49:30;;;;;;;5.73;4.90;;;10.20;98.40;;;;;;943570;148;27365;-84
2024/01/01 02:51:57;;;;;;;8.00;4.63;;;10.20;98.40;;;;;;946642;149;27356;-86
2024/01/01 02:54:23;;;;;;;8.37;4.70;;;10.20;98.40;;;;;;937594;149;27313;-86
2024/01/01 02:56:50;;;;;;;6.43;4.57;;;10.20;98.30;;;;;;926464;151;27296;-83
2024/01/01 02:59:16;;;;;;;4.80;4.13;;;10.20;98.40;;;;;;939277;150;27318;-84
2024/01/01 03:01:43;;;;;;;10.27;6.17;;;10.20;98.40;;;;;;940165;151;27385;-82
2024/01/01 03:04:10;;;;;;;10.80;8.40;;;10.20;98.30;;;;;;935349;149;27396;-82
2024/01/01 03:06:36;;;;;;;10.67;8.20;;;10.20;98.30;;;;;;916363;152;27438;-83
2024/01/01 03:09:03;;;;;;;24.77;17.77;;;10.20;98.30;;;;;;943500;149;27345;-82
2024/01/01 03:11:29;;;;;;;13.63;9.50;;;10.20;98.30;;;;;;942493;149;27474;-82
2024/01/01 03:13:56;;;;;;;8.17;5.20;;;10.30;98.30;;;;;;937642;149;27345;-82
2024/01/01 03:16:23;;;;;;;8.27;6.43;;;10.30;98.30;;;;;;922225;151;27419;-83
2024/01/01 03:18:49;;;;;;;8.53;6.40;;;10.30;98.20;;;;;;934890;149;27302;-83
2024/01/01 03:21:16;;;;;;;8.17;6.27;;;10.30;98.10;;;;;;916175;153;27485;-82
2024/01/01 03:23:46;;;;;;;6.30;3.47;;;10.30;98.10;;;;;;921028;152;27376;-81
2024/01/01 03:26:12;;;;;;;3.97;3.27;;;10.30;97.90;;;;;;937668;149;27361;-81
2024/01/01 03:28:38;;;;;;;5.20;3.77;;;10.40;97.80;;;;;;924633;150;27383;-81
2024/01/01 03:31:05;;;;;;;8.13;5.17;;;10.40;97.70;;;;;;921285;152;27387;-81
2024/01/01 03:33:34;;;;;;;5.70;3.43;;;10.40;97.70;;;;;;919514;152;27405;-81
2024/01/01 03:36:01;;;;;;;4.37;3.60;;;10.40;97.50;;;;;;919837;152;27348;-81
2024/01/01 03:38:28;;;;;;;4.20;2.80;;;10.40;97.40;;;;;;920537;152;27368;-81
2024/01/01 03:40:54;;;;;;;4.90;3.47;;;10.40;97.40;;;;;;920604;152;27485;-83
2024/01/01 03:43:21;;;;;;;4.00;2.77;;;10.40;97.50;;;;;;921348;151;27742;-81
2024/01/01 03:45:47;;;;;;;5.23;3.03;;;10.40;97.60;;;;;;924393;150;27414;-80
2024/01/01 03:48:14;;;;;;;3.67;2.60;;;10.40;97.70;;;;;;945656;149;27429;-82
2024/01/01 03:50:40;;;;;;;4.27;3.30;;;10.40;97.80;;;;;;930872;149;27369;-82
2024/01/01 03:53:07;;;;;;;4.23;3.00;;;10.40;97.80;;;;;;928744;151;27379;-81
2024/01/01 03:55:34;;;;;;;6.10;2.83;;;10.40;97.70;;;;;;938024;151;27359;-82
2024/01/01 03:58:00;;;;;;;3.93;2.80;;;10.40;97.70;;;;;;930436;151;27419;-82
2024/01/01 04:00:27;;;;;;;4.67;3.13;;;10.40;97.60;;;;;;908746;154;27301;-82
2024/01/01 04:02:53;;;;;;;5.37;2.87;;;10.40;97.60;;;;;;925601;151;27362;-82
2024/01/01 04:05:20;;;;;;;5.43;3.30;;;10.40;97.50;;;;;;911970;153;27384;-81
2024/01/01 04:07:47;;;;;;;3.87;2.70;;;10.40;97.50;;;;;;930948;151;27413;-82
2024/01/01 04:10:13;;;;;;;5.73;2.73;;;10.40;97.60;;;;;;908126;154;27363;-83
2024/01/01 04:12:40;;;;;;;3.27;2.97;;;10.40;97.60;;;;;;930296;151;27366;-84
2024/01/01 04:15:06;;;;;;;5.30;2.77;;;10.40;97.60;;;;;;930202;151;27465;-81
2024/01/01 04:17:33;;;;;;;6.17;3.60;;;10.40;97.70;;;;;;931076;151;27368;-81
2024/01/01 04:20:00;;;;;;;6.33;3.03;;;10.40;97.60;;;;;;904857;153;27332;-82
2024/01/01 04:22:26;;;;;;;6.47;3.47;;;10.40;97.40;;;;;;924836;151;27432;-82
2024/01/01 04:24:53;;;;;;;8.07;2.83;;;10.40;97.20;;;;;;920742;152;27403;-81
2024/01/01 04:27:19;;;;;;;7.23;3.10;;;10.40;96.90;;;;;;920628;152;27448;-81
2024/01/01 04:29:46;;;;;;;6.90;3.00;;;10.30;96.70;;;;;;921006;152;27362;-82
2024/01/01 04:32:12;;;;;;;4.10;2.83;;;10.30;96.60;;;;;;920827;152;27349;-81
2024/01/01 04:34:39;;;;;;;5.23;3.00;;;10.20;96.70;;;;;;920392;152;27348;-83
2024/01/01 04:37:06;;;;;;;5.40;2.33;;;10.20;96.90;;;;;;920708;152;27387;-81
2024/01/01 04:39:32;;;;;;;5.23;2.33;;;10.10;96.60;;;;;;920445;152;27441;-81
2024/01/01 04:41:59;;;;;;;4.13;2.50;;;10.20;97.30;;;;;;920709;152;27348;-82
2024/01/01 04:44:25;;;;;;;3.43;2.30;;;10.10;97.40;;;;;;920124;152;27329;-83
2024/01/01 04:46:52;;;;;;;5.17;2.30;;;10.20;97.30;;;;;;920742;152;27475;-81
2024/01/01 04:49:19;;;;;;;6.57;2.17;;;10.20;97.50;;;;;;926045;151;27452;-82
2024/01/01 04:51:45;;;;;;;6.17;2.40;;;10.20;97.00;;;;;;925739;151;27331;-81
2024/01/01 04:54:12;;;;;;;4.87;2.00;;;10.20;97.20;;;;;;925947;151;27428;-82
2024/01/01 04:56:38;;;;;;;4.77;2.20;;;10.20;96.80;;;;;;925333;151;27379;-83
2024/01/01 04:59:06;;;;;;;3.43;2.30;;;10.20;96.70;;;;;;926029;151;27465;-82
2024/01/01 05:01:31;;;;;;;4.13;2.10;;;10.20;96.90;;;;;;924852;151;27304;-83
2024/01/01 05:03:58;;;;;;;4.33;2.77;;;10.20;96.90;;;;;;947400;148;27374;-83
2024/01/01 05:06:25;;;;;;;7.07;2.30;;;10.20;97.00;;;;;;945864;149;27815;-84
2024/01/01 05:08:51;;;;;;;5.47;3.00;;;10.30;97.20;;;;;;921323;151;27544;-84
2024/01/01 05:11:18;;;;;;;5.10;2.80;;;10.30;97.50;;;;;;940398;148;27340;-87
2024/01/01 05:13:44;;;;;;;5.13;2.37;;;10.30;97.70;;;;;;941212;149;27299;-84
2024/01/01 05:16:11;;;;;;;4.60;2.23;;;10.30;97.60;;;;;;920023;152;27339;-84
2024/01/01 05:18:38;;;;;;;2.33;2.00;;;10.30;97.40;;;;;;949196;149;27367;-83
2024/01/01 05:21:04;;;;;;;3.87;2.20;;;10.30;97.40;;;;;;939809;149;27351;-81
2024/01/01 05:23:31;;;;;;;5.93;2.40;;;10.30;97.40;;;;;;933149;149;27329;-82
2024/01/01 05:25:57;;;;;;;5.60;2.87;;;10.30;97.10;;;;;;912466;152;27423;-83
2024/01/01 05:28:24;;;;;;;2.93;2.23;;;10.30;97.00;;;;;;937816;149;27358;-82
2024/01/01 05:30:51;;;;;;;7.57;3.23;;;10.30;97.00;;;;;;911301;152;27433;-81
2024/01/01 05:33:17;;;;;;;4.23;2.60;;;10.20;97.10;;;;;;932162;150;27725;-83
2024/01/01 05:35:44;;;;;;;5.70;2.87;;;10.10;97.20;;;;;;933127;150;27369;-83
2024/01/01 05:38:10;;;;;;;6.47;2.73;;;10.10;97.30;;;;;;911864;152;27478;-84
2024/01/01 05:40:38;;;;;;;4.40;2.50;;;10.00;97.40;;;;;;917256;152;27476;-83
2024/01/01 05:43:03;;;;;;;6.07;2.40;;;10.00;97.50;;;;;;932541;149;27376;-83
2024/01/01 05:45:30;;;;;;;4.63;2.40;;;10.00;97.60;;;;;;920286;151;27396;-82
2024/01/01 05:47:57;;;;;;;4.67;2.70;;;9.90;97.70;;;;;;940145;149;27843;-83
2024/01/01 05:50:23;;;;;;;3.57;2.00;;;9.90;97.70;;;;;;935390;149;27412;-84
2024/01/01 05:52:50;;;;;;;5.00;2.17;;;9.80;97.70;;;;;;921383;151;27350;-84
2024/01/01 05:55:16;;;;;;;3.67;1.80;;;9.80;98.00;;;;;;920607;151;27332;-83
2024/01/01 05:57:43;;;;;;;2.87;1.90;;;9.80;98.10;;;;;;938442;149;27424;-84
2024/01/01 06:00:10;;;;;;;7.07;2.27;;;9.80;98.30;;;;;;934649;149;27369;-84
2024/01/01 06:02:36;;;;;;;4.63;2.03;;;9.80;98.60;;;;;;933524;149;27436;-83
2024/01/01 06:05:03;;;;;;;2.93;2.13;;;9.80;98.70;;;;;;939868;150;27300;-83
2024/01/01 06:07:29;;;;;;;3.07;1.80;;;9.80;98.80;;;;;;917013;152;27328;-83
2024/01/01 06:09:57;;;;;;;3.93;2.07;;;9.80;98.80;;;;;;910404;152;27409;-84
2024/01/01 06:12:22;;;;;;;5.07;1.67;;;9.80;98.70;;;;;;916480;152;27411;-80
2024/01/01 06:14:50;;;;;;;4.07;1.80;;;9.90;98.50;;;;;;937798;149;27315;-79
2024/01/01 06:17:16;;;;;;;3.17;1.70;;;9.90;98.30;;;;;;932664;149;27338;-87
2024/01/01 06:19:42;;;;;;;4.40;2.00;;;9.90;98.10;;;;;;912327;153;27327;-87
2024/01/01 06:22:09;;;;;;;5.07;1.33;;;9.90;97.90;;;;;;916965;152;27406;-88
2024/01/01 06:24:35;;;;;;;5.30;1.60;;;9.90;97.80;;;;;;911871;153;27390;-86
2024/01/01 06:27:02;;;;;;;2.90;1.50;;;9.80;97.70;;;;;;932330;149;27391;-86
2024/01/01 06:29:29;;;;;;;2.10;1.43;;;9.80;97.70;;;;;;917942;151;27302;-85
2024/01/01 06:31:55;;;;;;;3.67;1.33;;;9.80;97.80;;;;;;942204;150;27357;-88
2024/01/01 06:34:22;;;;;;;2.63;1.37;;;9.80;98.00;;;;;;934016;150;28570;-87
2024/01/01 06:36:48;;;;;;;5.40;1.97;;;9.80;98.30;;;;;;911608;153;27341;-86
2024/01/01 06:39:15;;;;;;;2.57;1.43;;;9.80;98.70;;;;;;941814;149;27321;-85
2024/01/01 06:41:42;;;;;;;1.77;1.40;;;9.80;98.80;;;;;;938195;150;27411;-83
2024/01/01 06:44:08;;;;;;;4.07;1.63;;;9.80;99.00;;;;;;932369;149;27354;-85
2024/01/01 06:46:35;;;;;;;4.30;2.10;;;9.80;98.90;;;;;;914824;152;27317;-90
2024/01/01 06:49:01;;;;;;;4.13;1.67;;;9.90;98.90;;;;;;917186;152;27336;-89
2024/01/01 06:51:28;;;;;;;3.77;1.60;;;9.90;98.60;;;;;;936490;149;27526;-86
2024/01/01 06:53:54;;;;;;;6.83;2.10;;;9.90;98.40;;;;;;926701;151;27490;-88
2024/01/01 06:56:21;;;;;;;6.27;1.80;;;9.90;98.30;;;;;;938005;149;27346;-86
2024/01/01 06:58:48;;;;;;;5.67;1.80;;;9.90;98.50;;;;;;923672;152;27363;-86
2024/01/01 07:01:14;;;;;;;5.60;1.60;;;9.90;98.60;;;;;;910515;152;27382;-86
2024/01/01 07:03:41;;;;;;;3.90;1.57;;;9.90;98.50;;;;;;936794;149;27357;-85
2024/01/01 07:06:07;;;;;;;3.87;1.57;;;9.90;98.50;;;;;;938091;149;27358;-86
2024/01/01 07:08:34;;;;;;;5.27;1.67;;;9.90;98.50;;;;;;937594;149;27416;-86
2024/01/01 07:11:01;;;;;;;4.07;1.53;;;9.90;98.50;;;;;;937770;149;27424;-85
2024/01/01 07:13:27;;;;;;;3.80;1.63;;;9.90;98.50;;;;;;937839;149;27317;-85
2024/01/01 07:15:54;;;;;;;5.27;1.77;;;10.00;98.40;;;;;;937610;149;27803;-87
2024/01/01 07:18:20;;;;;;;5.67;2.23;;;10.00;98.20;;;;;;937681;149;27288;-86
2024/01/01 07:20:47;;;;;;;6.13;1.50;;;10.00;98.10;;;;;;937809;149;27295;-86
2024/01/01 07:23:13;;;;;;;3.47;1.70;;;10.00;98.10;;;;;;937776;149;27346;-86
2024/01/01 07:25:40;;;;;;;4.53;1.40;;;10.10;97.90;;;;;;936565;149;27312;-86
2024/01/01 07:28:07;;;;;;;2.07;1.30;;;10.10;97.70;;;;;;937342;149;27363;-88
2024/01/01 07:30:33;;;;;;;3.37;1.50;;;10.10;97.50;;;;;;947580;149;27284;-89
2024/01/01 07:33:00;;;;;;;3.70;1.40;;;10.00;97.30;;;;;;944332;149;27464;-87
2024/01/01 07:35:27;;;;;;;4.03;1.50;;;10.00;97.10;;;;;;945393;148;27296;-87
2024/01/01 07:37:53;;;;;;;5.33;1.70;;;10.00;96.90;;;;;;945801;148;27371;-90
2024/01/01 07:40:20;;;;;;;5.63;1.70;;;10.00;96.90;;;;;;922721;152;27310;-85
2024/01/01 07:42:46;;;;;;;3.80;1.50;;;9.90;96.80;;;;;;938160;149;27367;-84
2024/01/01 07:45:13;;;;;;;4.37;1.70;;;9.90;96.90;;;;;;922620;152;27430;-89
2024/01/01 07:47:39;;;;;;;4.50;1.77;;;9.80;97.00;;;;;;938791;149;27460;-91
2024/01/01 07:50:07;;;;;;;3.80;1.80;;;9.80;97.40;;;;;;917376;151;28477;-87
2024/01/01 07:52:33;;;;;;;5.83;2.40;;;9.80;97.70;;;;;;939517;149;27436;-87
2024/01/01 07:54:59;;;;;;;4.33;1.90;;;9.80;97.70;;;;;;946901;148;27343;-86
2024/01/01 07:57:26;;;;;;;4.83;2.00;;;9.70;97.70;;;;;;939584;149;27357;-83
2024/01/01 07:59:55;;;;;;;3.47;1.90;;;9.70;97.60;;;;;;923279;152;27484;-85
2024/01/01 08:02:19;;;;;;;7.40;2.27;;;9.80;97.60;;;;;;938239;148;27404;-85
2024/01/01 08:04:46;;;;;;;6.27;2.10;;;9.70;97.70;;;;;;920539;152;27382;-84
2024/01/01 08:07:12;;;;;;;5.00;2.07;;;9.70;97.60;;;;;;939336;149;27863;-84
2024/01/01 08:09:39;;;;;;;6.07;1.90;;;9.70;97.70;;;;;;935053;149;27482;-83
2024/01/01 08:12:05;;;;;;;7.87;2.27;;;9.60;97.80;;;;;;939260;148;27428;-83
2024/01/01 08:14:32;;;;;;;4.57;2.17;;;9.60;98.20;;;;;;944931;149;27403;-83
2024/01/01 08:16:59;;;;;;;8.73;2.27;;;9.60;98.60;;;;;;924736;151;27441;-82
2024/01/01 08:19:25;;;;;;;5.73;2.13;;;9.70;99.00;;;;;;941649;149;27309;-82
2024/01/01 08:21:52;;;;;;;4.17;1.63;;;9.70;99.10;;;;;;935361;149;27365;-83
2024/01/01 08:24:18;;;;;;;4.13;2.20;;;9.70;99.00;;;;;;918810;151;27480;-83
2024/01/01 08:26:45;;;;;;;8.30;3.20;;;9.80;98.80;;;;;;938715;149;27294;-83
2024/01/01 08:29:12;;;;;;;3.77;1.90;;;9.80;98.70;;;;;;936966;149;27316;-83
2024/01/01 08:31:38;;;;;;;7.00;2.37;;;9.80;98.60;;;;;;924753;150;27382;-83
2024/01/01 08:34:05;;;;;;;9.40;2.57;;;9.80;98.40;;;;;;931095;151;27467;-79
2024/01/01 08:36:34;;;;;;;8.10;2.60;;;9.90;98.10;;;;;;919646;152;27442;-81
2024/01/01 08:39:01;;;;;;;5.70;2.17;;;9.90;98.50;;;;;;931158;150;27415;-83
2024/01/01 08:41:27;;;;;;;6.03;2.30;;;9.90;98.70;;;;;;939233;149;27418;-82
2024/01/01 08:44:00;;;;;;;8.83;4.90;;;9.90;98.90;;;;;;915981;151;27438;-82
2024/01/01 08:49:14;;;;;;;6.47;3.20;;;10.00;98.80;;;;;;986182;142;41078;-82
2024/01/01 08:51:40;;;;;;;8.50;3.00;;;10.10;98.90;;;;;;970671;146;27427;-81
2024/01/01 08:54:07;;;;;;;4.10;1.97;;;10.10;99.20;;;;;;969633;147;27265;-81
2024/01/01 08:56:33;;;;;;;10.17;2.83;;;10.20;99.20;;;;;;970146;145;27350;-80
2024/01/01 08:59:00;;;;;;;4.43;2.10;;;10.30;99.20;;;;;;970816;147;27247;-80
2024/01/01 09:01:26;;;;;;;5.87;2.10;;;10.30;99.00;;;;;;971298;147;27333;-82
2024/01/01 09:03:56;;;;;;;6.30;2.23;;;10.40;98.60;;;;;;970346;145;28291;-80
2024/01/01 09:06:20;;;;;;;6.07;2.27;;;10.50;98.40;;;;;;970238;147;27278;-81
2024/01/01 09:08:46;;;;;;;6.13;2.00;;;10.50;97.80;;;;;;970203;144;27396;-81
2024/01/01 09:11:13;;;;;;;7.00;2.30;;;10.60;97.50;;;;;;970616;146;27325;-83
2024/01/01 09:13:39;;;;;;;6.27;1.90;;;10.60;97.30;;;;;;969889;146;27330;-80
2024/01/01 09:16:06;;;;;;;5.40;1.80;;;10.60;97.10;;;;;;969966;147;27271;-80
2024/01/01 09:18:33;;;;;;;3.83;1.60;;;10.60;96.90;;;;;;969903;147;27397;-81
2024/01/01 09:20:59;;;;;;;4.33;1.80;;;10.70;96.90;;;;;;970561;147;27399;-82
2024/01/01 09:23:27;;;;;;;6.50;1.77;;;10.70;96.60;;;;;;970162;145;27427;-80
2024/01/01 09:25:54;;;;;;;3.87;1.80;;;10.70;96.40;;;;;;969853;145;28833;-81
2024/01/01 09:28:19;;;;;;;7.30;1.97;;;10.70;95.90;;;;;;969335;145;27398;-81
2024/01/01 09:30:45;;;;;;;5.40;2.13;;;10.80;95.90;;;;;;969788;145;27442;-81
2024/01/01 09:33:12;;;;;;;4.03;2.00;;;10.80;96.10;;;;;;969872;147;27501;-82
2024/01/01 09:35:39;;;;;;;5.60;1.60;;;10.80;96.30;;;;;;970473;146;27414;-81
2024/01/01 09:38:05;;;;;;;4.00;1.53;;;10.90;96.90;;;;;;970002;146;27894;-81
2024/01/01 09:40:32;;;;;;;4.87;1.43;;;11.00;96.80;;;;;;970857;147;27294;-81
2024/01/01 09:42:58;;;;;;;3.73;1.70;;;11.10;96.60;;;;;;969876;147;27353;-84
2024/01/01 09:45:25;;;;;;;4.37;1.73;;;11.20;96.10;;;;;;934226;150;27373;-81
2024/01/01 09:47:52;;;;;;;5.03;1.57;;;11.30;96.40;;;;;;950956;149;27456;-84
2024/01/01 09:50:18;;;;;;;3.55;1.50;;;11.40;96.30;;;;;;953087;150;27297;-83
2024/01/01 09:52:45;;;;;;;2.80;1.40;;;11.50;96.00;;;;;;935062;152;27411;-83
2024/01/01 09:55:11;;;;;;;3.93;1.90;;;11.60;95.70;;;;;;933169;152;27829;-83
2024/01/01 09:57:39;;;;;;;3.63;1.80;;;11.70;95.30;;;;;;938524;151;27459;-83
2024/01/01 10:00:05;;;;;;;3.03;1.40;;;11.70;95.00;;;;;;935817;151;27311;-83
2024/01/01 10:02:31;;;;;;;3.53;1.73;;;11.80;95.10;;;;;;935705;151;27421;-84
2024/01/01 10:05:11;;;;;;;5.08;2.10;;;11.90;95.00;;;;;;949321;149;27387;-84
2024/01/01 10:07:37;;;;;;;4.17;1.40;;;12.10;95.10;;;;;;931884;151;27381;-84
2024/01/01 10:10:03;;;;;;;5.30;1.50;;;12.20;94.90;;;;;;949213;150;28005;-83
2024/01/01 10:12:32;;;;;;;4.27;2.13;;;12.30;94.70;;;;;;969542;146;27351;-84
2024/01/01 10:14:56;;;;;;;5.28;1.72;;;12.40;94.20;;;;;;969512;147;27374;-84
2024/01/01 10:17:23;;;;;;;5.80;1.97;;;12.50;93.60;;;;;;969112;147;27330;-83
2024/01/01 10:19:52;;;;;;;6.35;2.50;;;12.60;93.30;;;;;;968236;147;28155;-83
2024/01/01 10:22:19;;;;;;;3.50;1.85;;;12.60;92.80;;;;;;969242;147;27222;-83
2024/01/01 10:24:45;;;;;;;5.62;2.10;;;12.60;91.90;;;;;;969649;147;27321;-84
2024/01/01 10:27:12;;;;;;;3.12;1.67;;;12.70;91.50;;;;;;968741;147;27350;-82
2024/01/01 10:29:38;;;;;;;5.78;1.80;;;12.70;91.30;;;;;;968558;147;27347;-84
2024/01/01 10:32:05;;;;;;;3.83;1.77;;;12.70;90.70;;;;;;969477;147;27224;-82
2024/01/01 10:34:32;;;;;;;6.73;2.27;;;12.70;90.90;;;;;;968241;146;27248;-84
2024/01/01 10:36:58;;;;;;;5.67;1.83;;;12.70;91.00;;;;;;969370;147;27317;-83
2024/01/01 10:39:25;;;;;;;7.53;2.47;;;12.70;91.00;;;;;;969673;148;28132;-83
2024/01/01 10:41:51;;;;;;;4.40;1.82;;;12.70;91.20;;;;;;968436;148;27245;-83
2024/01/01 10:44:18;;;;;;;5.42;1.72;;;12.70;89.90;;;;;;969360;147;27289;-84
2024/01/01 10:46:47;;;;;;;6.33;2.27;;;12.70;90.60;;;;;;969959;147;27317;-83
2024/01/01 10:49:16;;;;;;;5.10;2.17;;;12.70;90.30;;;;;;968952;147;27392;-83
2024/01/01 10:52:20;;;;;;;3.62;1.80;;;12.70;90.30;;;;;;968263;148;27257;-83
2024/01/01 10:55:24;;;;;;;6.27;1.90;;;12.70;90.30;;;;;;968280;147;27295;-80
2024/01/01 10:58:27;;;;;;;6.60;2.08;;;12.70;90.10;;;;;;968929;146;27304;-84
2024/01/01 11:01:06;;;;;;;3.87;1.72;;;12.60;90.30;;;;;;968538;147;27290;-82
2024/01/01 11:03:32;;;;;;;4.03;1.87;;;12.60;90.10;;;;;;968366;147;27301;-83
2024/01/01 11:05:58;;;;;;;9.17;2.60;;;12.50;90.00;;;;;;970101;146;27862;-84
2024/01/01 11:08:26;;;;;;;6.03;2.33;;;12.50;90.10;;;;;;969700;146;27303;-79
2024/01/01 11:10:51;;;;;;;5.07;2.07;;;12.50;90.00;;;;;;968265;146;27316;-79
2024/01/01 11:13:27;;;;;;;5.20;2.43;;;12.50;90.00;;;;;;969269;147;27284;-82
2024/01/01 11:16:00;;;;;;;4.58;1.75;;;12.40;90.10;;;;;;969678;148;27325;-82
2024/01/01 11:18:35;;;;;;;4.65;2.22;;;12.40;90.20;;;;;;968987;148;27411;-80
2024/01/01 11:21:05;;;;;;;3.47;1.80;;;12.40;90.10;;;;;;969531;146;27211;-80
2024/01/01 11:23:43;;;;;;;5.37;1.90;;;12.50;90.20;;;;;;969442;147;27363;-82
2024/01/01 11:26:32;;;;;;;2.40;1.87;;;12.40;90.10;;;;;;968541;148;27452;-80
2024/01/01 11:29:06;;;;;;;7.47;1.97;;;12.40;90.00;;;;;;967857;148;27341;-79
2024/01/01 11:31:33;;;;;;;7.70;2.47;;;12.40;89.80;;;;;;965701;147;27262;-79
2024/01/01 11:33:59;;;;;;;5.13;2.23;;;12.40;89.60;;;;;;967174;146;27227;-80
2024/01/01 11:36:29;;;;;;;6.33;1.87;;;12.40;89.50;;;;;;969704;147;27422;-81
2024/01/01 11:38:53;;;;;;;6.67;2.52;;;12.40;89.30;;;;;;969241;147;27334;-79
2024/01/01 11:41:22;;;;;;;5.60;1.80;;;12.30;89.30;;;;;;967258;146;27309;-79
2024/01/01 11:43:49;;;;;;;4.53;1.80;;;12.30;89.50;;;;;;968165;147;27385;-79
2024/01/01 11:46:27;;;;;;;7.57;1.83;;;12.30;89.40;;;;;;970293;148;27267;-82
2024/01/01 11:48:59;;;;;;;3.87;1.65;;;12.30;89.50;;;;;;968602;147;27454;-80
2024/01/01 11:51:26;;;;;;;4.67;1.80;;;12.30;89.70;;;;;;969532;148;27416;-78
2024/01/01 11:54:07;;;;;;;5.70;2.10;;;12.40;90.10;;;;;;968672;147;27302;-80
2024/01/01 11:56:34;;;;;;;2.87;2.00;;;12.40;90.10;;;;;;969030;147;27326;-79
2024/01/01 11:59:02;;;;;;;4.17;2.27;;;12.40;90.00;;;;;;969704;147;27439;-80
2024/01/01 12:01:27;;;;;;;4.37;1.72;;;12.40;89.30;;;;;;969420;147;27299;-79
2024/01/01 12:03:54;;;;;;;2.90;1.40;;;12.50;89.50;;;;;;969205;147;27304;-80
2024/01/01 12:06:20;;;;;;;6.20;2.53;;;12.50;89.50;;;;;;968886;147;27318;-82
2024/01/01 12:08:47;;;;;;;3.43;1.37;;;12.50;88.90;;;;;;969555;147;27373;-79
2024/01/01 12:11:13;;;;;;;3.97;2.00;;;12.50;88.80;;;;;;970279;148;27290;-80
2024/01/01 12:13:40;;;;;;;5.73;2.13;;;12.50;88.60;;;;;;969097;147;27271;-78
2024/01/01 12:16:16;;;;;;;5.10;2.17;;;12.50;88.40;;;;;;969566;147;28002;-79
2024/01/01 12:18:42;;;;;;;4.63;2.00;;;12.50;88.20;;;;;;967154;147;27287;-80
2024/01/01 12:21:09;;;;;;;2.25;1.47;;;12.60;87.60;;;;;;969557;147;27330;-79
2024/01/01 12:23:36;;;;;;;4.93;1.90;;;12.60;87.90;;;;;;968807;147;27285;-79
2024/01/01 12:26:05;;;;;;;4.95;1.77;;;12.60;88.20;;;;;;969949;147;27258;-80
2024/01/01 12:28:31;;;;;;;4.33;1.95;;;12.60;88.40;;;;;;969159;147;27457;-77
2024/01/01 12:31:01;;;;;;;2.97;1.47;;;12.60;88.70;;;;;;969964;148;27443;-79
2024/01/01 12:33:27;;;;;;;3.92;2.05;;;12.70;88.10;;;;;;968942;147;27321;-80
2024/01/01 12:35:54;;;;;;;4.63;1.80;;;12.70;88.50;;;;;;968745;147;27232;-79
2024/01/01 12:38:21;;;;;;;3.77;1.65;;;12.70;88.40;;;;;;968859;147;27338;-79
2024/01/01 12:40:47;;;;;;;4.70;2.13;;;12.70;88.20;;;;;;968608;147;27833;-80
2024/01/01 12:43:14;;;;;;;5.28;1.80;;;12.70;88.00;;;;;;969545;147;27295;-80
2024/01/01 12:45:40;;;;;;;3.83;1.50;;;12.80;87.90;;;;;;969054;147;27350;-79
2024/01/01 12:48:07;;;;;;;4.57;1.90;;;12.70;88.00;;;;;;968655;148;27715;-82